Pagrindinis puslapis
METAR-TAF:

METAR-TAF

Oro uostai :

Båtsfjord, Norvegija

platuma: 70-38N, ilguma: 029-44E, Aukštis: 10 m

Dabartinis oras

Ataskaita buvo paskelbta 19 valandos ir 37 minutes, ne 11:20 UTC
Vėjas 16 kt iš Šiaurės/Šiaurės Vakarų
Temperatūra -6°C
Drėgmė 79%
Slėgis 1001 hPa
Matomumas: 6000 m
Išsisklaidę debesys ne aukštis 1600 ft
Su prošvaistėmis ne aukštis 2600 ft
Liūtis kaimynystėje, Sniego pustymas pažeme

METAR: ENBS 091120Z 34016KT 9999 6000NE VCSH DRSN SCT016 BKN026 M06/M09 Q1001

Laikas: 08:57 (06:57 UTC)


TAF: trūkstamas

Orai ataskaitas ir orų prognozės (METAR, TAF).

turimą stotys yra geltonos ir raudonos taškus žemėlapyje.

Perkelti pele per norėdami pamatyti stoties vardą.

Tada spustelėkite, norėdami matyti oro stebėjimo ir prognozės.

Norėdami pakeisti žemėlapį: spustelėkite ant žalios mygtukų su juodo kryžiaus žemyn,; žalią mygtuką su brūkšneliu, jei norite nutolinti; arba žalių rodyklių gretimoms žemėlapius.


METAR-TAF: